sensor_id;sensor_type;location;lat;lon;timestamp;temperature;humidity
612;DHT22;293;53.888;11.464;2023-06-22T00:01:16;18.20;99.90
612;DHT22;293;53.888;11.464;2023-06-22T00:03:43;18.20;99.90
612;DHT22;293;53.888;11.464;2023-06-22T00:06:10;18.20;99.90
612;DHT22;293;53.888;11.464;2023-06-22T00:08:37;18.10;99.90
612;DHT22;293;53.888;11.464;2023-06-22T00:11:04;18.00;99.90
612;DHT22;293;53.888;11.464;2023-06-22T00:13:32;18.00;99.90
612;DHT22;293;53.888;11.464;2023-06-22T00:15:59;18.00;99.90
612;DHT22;293;53.888;11.464;2023-06-22T00:18:26;17.90;99.90
612;DHT22;293;53.888;11.464;2023-06-22T00:23:23;17.90;99.90
612;DHT22;293;53.888;11.464;2023-06-22T00:25:51;17.90;99.90
612;DHT22;293;53.888;11.464;2023-06-22T00:28:18;17.90;99.90
612;DHT22;293;53.888;11.464;2023-06-22T00:30:47;17.90;99.90
612;DHT22;293;53.888;11.464;2023-06-22T00:33:14;17.90;99.90
612;DHT22;293;53.888;11.464;2023-06-22T00:35:41;17.80;99.90
612;DHT22;293;53.888;11.464;2023-06-22T00:38:08;17.80;99.90
612;DHT22;293;53.888;11.464;2023-06-22T00:40:35;17.80;99.90
612;DHT22;293;53.888;11.464;2023-06-22T00:43:03;17.80;99.90
612;DHT22;293;53.888;11.464;2023-06-22T00:45:30;17.70;99.90
612;DHT22;293;53.888;11.464;2023-06-22T00:47:59;17.70;99.90
612;DHT22;293;53.888;11.464;2023-06-22T00:50:27;17.70;99.90
612;DHT22;293;53.888;11.464;2023-06-22T00:53:01;17.70;99.90
612;DHT22;293;53.888;11.464;2023-06-22T00:55:34;17.70;99.90
612;DHT22;293;53.888;11.464;2023-06-22T00:58:03;17.70;99.90
612;DHT22;293;53.888;11.464;2023-06-22T01:00:31;17.60;99.90
612;DHT22;293;53.888;11.464;2023-06-22T01:03:01;17.50;99.90
612;DHT22;293;53.888;11.464;2023-06-22T01:05:29;17.50;99.90
612;DHT22;293;53.888;11.464;2023-06-22T01:08:08;17.50;99.90
612;DHT22;293;53.888;11.464;2023-06-22T01:10:43;17.50;99.90
612;DHT22;293;53.888;11.464;2023-06-22T01:13:18;17.50;99.90
612;DHT22;293;53.888;11.464;2023-06-22T01:15:53;17.60;99.90
612;DHT22;293;53.888;11.464;2023-06-22T01:18:24;17.60;99.90
612;DHT22;293;53.888;11.464;2023-06-22T01:20:54;17.60;99.90
612;DHT22;293;53.888;11.464;2023-06-22T01:23:29;17.60;99.90
612;DHT22;293;53.888;11.464;2023-06-22T01:26:05;17.60;99.90
612;DHT22;293;53.888;11.464;2023-06-22T01:28:41;17.60;99.90
612;DHT22;293;53.888;11.464;2023-06-22T01:31:11;17.70;99.90
612;DHT22;293;53.888;11.464;2023-06-22T01:33:42;17.60;99.90
612;DHT22;293;53.888;11.464;2023-06-22T01:36:09;17.70;99.90
612;DHT22;293;53.888;11.464;2023-06-22T01:38:37;17.70;99.90
612;DHT22;293;53.888;11.464;2023-06-22T01:41:05;17.60;99.90
612;DHT22;293;53.888;11.464;2023-06-22T01:43:33;17.60;99.90
612;DHT22;293;53.888;11.464;2023-06-22T01:46:04;17.60;99.90
612;DHT22;293;53.888;11.464;2023-06-22T01:48:31;17.50;99.90
612;DHT22;293;53.888;11.464;2023-06-22T01:50:59;17.50;99.90
612;DHT22;293;53.888;11.464;2023-06-22T01:53:26;18.30;99.90
612;DHT22;293;53.888;11.464;2023-06-22T01:55:52;17.50;99.90
612;DHT22;293;53.888;11.464;2023-06-22T01:58:21;17.40;99.90
612;DHT22;293;53.888;11.464;2023-06-22T02:00:54;17.30;99.90
612;DHT22;293;53.888;11.464;2023-06-22T02:03:28;17.30;99.90
612;DHT22;293;53.888;11.464;2023-06-22T02:06:01;17.30;99.90
612;DHT22;293;53.888;11.464;2023-06-22T02:08:32;17.40;99.90
612;DHT22;293;53.888;11.464;2023-06-22T02:11:01;17.40;99.90
612;DHT22;293;53.888;11.464;2023-06-22T02:13:29;17.40;99.90
612;DHT22;293;53.888;11.464;2023-06-22T02:15:56;17.30;99.90
612;DHT22;293;53.888;11.464;2023-06-22T02:18:25;17.40;99.90
612;DHT22;293;53.888;11.464;2023-06-22T02:20:51;17.30;99.90
612;DHT22;293;53.888;11.464;2023-06-22T02:23:19;17.30;99.90
612;DHT22;293;53.888;11.464;2023-06-22T02:25:45;17.30;99.90
612;DHT22;293;53.888;11.464;2023-06-22T02:28:12;17.30;99.90
612;DHT22;293;53.888;11.464;2023-06-22T02:30:39;17.40;99.90
612;DHT22;293;53.888;11.464;2023-06-22T02:33:06;17.30;99.90
612;DHT22;293;53.888;11.464;2023-06-22T02:35:34;17.30;99.90
612;DHT22;293;53.888;11.464;2023-06-22T02:38:03;17.40;99.90
612;DHT22;293;53.888;11.464;2023-06-22T02:40:30;17.40;99.90
612;DHT22;293;53.888;11.464;2023-06-22T02:42:58;17.40;99.90
612;DHT22;293;53.888;11.464;2023-06-22T02:45:27;17.40;99.90
612;DHT22;293;53.888;11.464;2023-06-22T02:47:55;17.30;99.90
612;DHT22;293;53.888;11.464;2023-06-22T02:50:22;17.30;99.90
612;DHT22;293;53.888;11.464;2023-06-22T02:52:50;17.30;99.90
612;DHT22;293;53.888;11.464;2023-06-22T02:55:17;17.30;99.90
612;DHT22;293;53.888;11.464;2023-06-22T02:57:44;17.30;99.90
612;DHT22;293;53.888;11.464;2023-06-22T03:00:13;17.20;99.90
612;DHT22;293;53.888;11.464;2023-06-22T03:02:42;17.20;99.90
612;DHT22;293;53.888;11.464;2023-06-22T03:05:10;17.30;99.90
612;DHT22;293;53.888;11.464;2023-06-22T03:07:39;17.30;99.90
612;DHT22;293;53.888;11.464;2023-06-22T03:10:08;17.20;99.90
612;DHT22;293;53.888;11.464;2023-06-22T03:12:36;17.20;99.90
612;DHT22;293;53.888;11.464;2023-06-22T03:15:04;17.30;99.90
612;DHT22;293;53.888;11.464;2023-06-22T03:17:31;17.30;99.90
612;DHT22;293;53.888;11.464;2023-06-22T03:19:58;17.30;99.90
612;DHT22;293;53.888;11.464;2023-06-22T03:22:25;17.30;99.90
612;DHT22;293;53.888;11.464;2023-06-22T03:24:51;17.30;99.90
612;DHT22;293;53.888;11.464;2023-06-22T03:27:20;17.30;99.90
612;DHT22;293;53.888;11.464;2023-06-22T03:29:47;17.30;99.90
612;DHT22;293;53.888;11.464;2023-06-22T03:32:13;17.40;99.90
612;DHT22;293;53.888;11.464;2023-06-22T03:34:40;17.30;99.90
612;DHT22;293;53.888;11.464;2023-06-22T03:37:13;17.40;99.90
612;DHT22;293;53.888;11.464;2023-06-22T03:39:40;17.20;99.90
612;DHT22;293;53.888;11.464;2023-06-22T03:42:07;17.60;99.90
612;DHT22;293;53.888;11.464;2023-06-22T03:44:36;17.80;99.90
612;DHT22;293;53.888;11.464;2023-06-22T03:47:03;17.90;99.90
612;DHT22;293;53.888;11.464;2023-06-22T03:49:32;17.90;99.90
612;DHT22;293;53.888;11.464;2023-06-22T03:52:00;18.00;99.90
612;DHT22;293;53.888;11.464;2023-06-22T03:54:28;18.50;99.90
612;DHT22;293;53.888;11.464;2023-06-22T03:56:56;18.50;99.90
612;DHT22;293;53.888;11.464;2023-06-22T03:59:23;18.80;99.90
612;DHT22;293;53.888;11.464;2023-06-22T04:01:51;19.10;99.90
612;DHT22;293;53.888;11.464;2023-06-22T04:04:18;19.20;99.90
612;DHT22;293;53.888;11.464;2023-06-22T04:06:45;19.50;99.90
612;DHT22;293;53.888;11.464;2023-06-22T04:09:12;19.90;99.90
612;DHT22;293;53.888;11.464;2023-06-22T04:11:39;20.20;99.90
612;DHT22;293;53.888;11.464;2023-06-22T04:14:06;20.70;99.90
612;DHT22;293;53.888;11.464;2023-06-22T04:16:33;21.10;99.90
612;DHT22;293;53.888;11.464;2023-06-22T04:19:02;21.30;99.90
612;DHT22;293;53.888;11.464;2023-06-22T04:21:28;22.00;99.90
612;DHT22;293;53.888;11.464;2023-06-22T04:23:55;22.70;99.90
612;DHT22;293;53.888;11.464;2023-06-22T04:26:22;23.40;99.90
612;DHT22;293;53.888;11.464;2023-06-22T04:28:49;23.90;99.90
612;DHT22;293;53.888;11.464;2023-06-22T04:31:21;24.50;99.40
612;DHT22;293;53.888;11.464;2023-06-22T04:33:47;25.20;98.50
612;DHT22;293;53.888;11.464;2023-06-22T04:36:18;25.70;97.40
612;DHT22;293;53.888;11.464;2023-06-22T04:38:46;26.00;95.90
612;DHT22;293;53.888;11.464;2023-06-22T04:41:13;26.10;94.40
612;DHT22;293;53.888;11.464;2023-06-22T04:43:49;26.00;94.60
612;DHT22;293;53.888;11.464;2023-06-22T04:46:19;25.90;94.10
612;DHT22;293;53.888;11.464;2023-06-22T04:48:46;25.40;94.10
612;DHT22;293;53.888;11.464;2023-06-22T04:51:13;25.10;95.30
612;DHT22;293;53.888;11.464;2023-06-22T04:53:41;25.20;95.70
612;DHT22;293;53.888;11.464;2023-06-22T04:56:08;25.60;95.30
612;DHT22;293;53.888;11.464;2023-06-22T04:58:35;25.90;94.80
612;DHT22;293;53.888;11.464;2023-06-22T05:01:02;26.30;93.60
612;DHT22;293;53.888;11.464;2023-06-22T05:03:29;26.50;94.00
612;DHT22;293;53.888;11.464;2023-06-22T05:05:56;26.90;93.60
612;DHT22;293;53.888;11.464;2023-06-22T05:08:23;27.10;93.20
612;DHT22;293;53.888;11.464;2023-06-22T05:10:53;27.00;92.50
612;DHT22;293;53.888;11.464;2023-06-22T05:13:20;26.80;92.30
612;DHT22;293;53.888;11.464;2023-06-22T05:15:47;26.60;92.80
612;DHT22;293;53.888;11.464;2023-06-22T05:18:14;26.30;92.80
612;DHT22;293;53.888;11.464;2023-06-22T05:20:41;26.00;93.10
612;DHT22;293;53.888;11.464;2023-06-22T05:23:08;25.80;93.40
612;DHT22;293;53.888;11.464;2023-06-22T05:25:35;25.50;94.00
612;DHT22;293;53.888;11.464;2023-06-22T05:28:03;25.30;94.60
612;DHT22;293;53.888;11.464;2023-06-22T05:30:36;25.30;94.90
612;DHT22;293;53.888;11.464;2023-06-22T05:33:04;25.20;94.90
612;DHT22;293;53.888;11.464;2023-06-22T05:35:31;25.60;95.20
612;DHT22;293;53.888;11.464;2023-06-22T05:37:57;26.00;94.70
612;DHT22;293;53.888;11.464;2023-06-22T05:40:24;26.20;94.00
612;DHT22;293;53.888;11.464;2023-06-22T05:42:52;26.60;93.90
612;DHT22;293;53.888;11.464;2023-06-22T05:45:20;27.20;93.10
612;DHT22;293;53.888;11.464;2023-06-22T05:47:47;27.40;93.20
612;DHT22;293;53.888;11.464;2023-06-22T05:50:14;28.00;92.30
612;DHT22;293;53.888;11.464;2023-06-22T05:52:41;27.80;90.80
612;DHT22;293;53.888;11.464;2023-06-22T05:55:08;28.90;90.30
612;DHT22;293;53.888;11.464;2023-06-22T05:57:35;29.10;89.70
612;DHT22;293;53.888;11.464;2023-06-22T06:00:03;29.00;88.90
612;DHT22;293;53.888;11.464;2023-06-22T06:02:33;29.00;89.10
612;DHT22;293;53.888;11.464;2023-06-22T06:05:01;29.50;89.60
612;DHT22;293;53.888;11.464;2023-06-22T06:07:28;30.20;87.40
612;DHT22;293;53.888;11.464;2023-06-22T06:09:55;30.80;85.70
612;DHT22;293;53.888;11.464;2023-06-22T06:12:22;31.60;83.40
612;DHT22;293;53.888;11.464;2023-06-22T06:14:48;32.30;81.50
612;DHT22;293;53.888;11.464;2023-06-22T06:17:16;32.80;79.10
612;DHT22;293;53.888;11.464;2023-06-22T06:19:45;33.10;76.70
612;DHT22;293;53.888;11.464;2023-06-22T06:22:12;33.80;75.20
612;DHT22;293;53.888;11.464;2023-06-22T06:24:39;34.60;73.20
612;DHT22;293;53.888;11.464;2023-06-22T06:27:06;35.20;68.50
612;DHT22;293;53.888;11.464;2023-06-22T06:29:33;36.00;66.50
612;DHT22;293;53.888;11.464;2023-06-22T06:32:00;36.90;65.40
612;DHT22;293;53.888;11.464;2023-06-22T06:34:27;37.70;63.00
612;DHT22;293;53.888;11.464;2023-06-22T06:36:55;38.40;60.50
612;DHT22;293;53.888;11.464;2023-06-22T06:39:22;38.90;58.30
612;DHT22;293;53.888;11.464;2023-06-22T06:41:49;39.20;56.80
612;DHT22;293;53.888;11.464;2023-06-22T06:44:16;39.60;56.80
612;DHT22;293;53.888;11.464;2023-06-22T06:46:43;40.10;55.80
612;DHT22;293;53.888;11.464;2023-06-22T06:49:10;37.80;52.60
612;DHT22;293;53.888;11.464;2023-06-22T06:51:37;40.60;53.10
612;DHT22;293;53.888;11.464;2023-06-22T06:54:05;40.50;52.70
612;DHT22;293;53.888;11.464;2023-06-22T06:56:32;40.50;50.90
612;DHT22;293;53.888;11.464;2023-06-22T06:58:59;40.40;51.20
612;DHT22;293;53.888;11.464;2023-06-22T07:01:26;39.90;51.00
612;DHT22;293;53.888;11.464;2023-06-22T07:03:59;39.10;51.60
612;DHT22;293;53.888;11.464;2023-06-22T07:08:57;37.30;53.60
612;DHT22;293;53.888;11.464;2023-06-22T07:11:26;36.40;55.20
612;DHT22;293;53.888;11.464;2023-06-22T07:13:53;35.60;55.60
612;DHT22;293;53.888;11.464;2023-06-22T07:16:20;34.80;55.70
612;DHT22;293;53.888;11.464;2023-06-22T07:18:48;34.00;57.10
612;DHT22;293;53.888;11.464;2023-06-22T07:21:15;32.90;58.70
612;DHT22;293;53.888;11.464;2023-06-22T07:23:42;32.90;59.50
612;DHT22;293;53.888;11.464;2023-06-22T07:26:09;32.40;59.40
612;DHT22;293;53.888;11.464;2023-06-22T07:28:39;31.90;60.50
612;DHT22;293;53.888;11.464;2023-06-22T07:31:06;31.00;59.90
612;DHT22;293;53.888;11.464;2023-06-22T07:33:33;31.00;60.60
612;DHT22;293;53.888;11.464;2023-06-22T07:36:00;30.70;62.10
612;DHT22;293;53.888;11.464;2023-06-22T07:38:28;30.50;63.10
612;DHT22;293;53.888;11.464;2023-06-22T07:40:55;30.30;63.70
612;DHT22;293;53.888;11.464;2023-06-22T07:43:22;30.20;63.20
612;DHT22;293;53.888;11.464;2023-06-22T07:45:50;30.10;63.10
612;DHT22;293;53.888;11.464;2023-06-22T07:48:20;30.10;64.80
612;DHT22;293;53.888;11.464;2023-06-22T07:50:47;30.10;64.50
612;DHT22;293;53.888;11.464;2023-06-22T07:53:14;30.10;63.10
612;DHT22;293;53.888;11.464;2023-06-22T07:55:41;30.10;63.80
612;DHT22;293;53.888;11.464;2023-06-22T07:58:08;30.10;64.50
612;DHT22;293;53.888;11.464;2023-06-22T08:00:35;30.10;64.60
612;DHT22;293;53.888;11.464;2023-06-22T08:03:03;29.90;65.00
612;DHT22;293;53.888;11.464;2023-06-22T08:05:30;29.80;64.80
612;DHT22;293;53.888;11.464;2023-06-22T08:07:58;29.60;64.50
612;DHT22;293;53.888;11.464;2023-06-22T08:10:26;29.40;64.30
612;DHT22;293;53.888;11.464;2023-06-22T08:12:53;29.20;64.70
612;DHT22;293;53.888;11.464;2023-06-22T08:15:20;29.00;64.70
612;DHT22;293;53.888;11.464;2023-06-22T08:17:47;28.90;65.50
612;DHT22;293;53.888;11.464;2023-06-22T08:20:16;28.70;68.00
612;DHT22;293;53.888;11.464;2023-06-22T08:22:43;28.50;68.50
612;DHT22;293;53.888;11.464;2023-06-22T08:25:10;28.30;71.00
612;DHT22;293;53.888;11.464;2023-06-22T08:27:38;28.10;70.10
612;DHT22;293;53.888;11.464;2023-06-22T08:30:07;28.00;70.50
612;DHT22;293;53.888;11.464;2023-06-22T08:32:34;27.80;70.70
612;DHT22;293;53.888;11.464;2023-06-22T08:35:01;27.60;70.50
612;DHT22;293;53.888;11.464;2023-06-22T08:37:29;27.30;72.00
612;DHT22;293;53.888;11.464;2023-06-22T08:39:58;27.20;72.10
612;DHT22;293;53.888;11.464;2023-06-22T08:42:25;27.00;72.00
612;DHT22;293;53.888;11.464;2023-06-22T08:44:52;26.90;72.90
612;DHT22;293;53.888;11.464;2023-06-22T08:47:19;26.60;75.40
612;DHT22;293;53.888;11.464;2023-06-22T08:49:46;26.30;75.90
612;DHT22;293;53.888;11.464;2023-06-22T08:52:13;26.20;75.60
612;DHT22;293;53.888;11.464;2023-06-22T08:54:42;26.10;78.00
612;DHT22;293;53.888;11.464;2023-06-22T08:57:09;26.10;78.40
612;DHT22;293;53.888;11.464;2023-06-22T08:59:36;26.10;78.40
612;DHT22;293;53.888;11.464;2023-06-22T09:02:03;25.90;78.70
612;DHT22;293;53.888;11.464;2023-06-22T09:04:30;25.60;79.70
612;DHT22;293;53.888;11.464;2023-06-22T09:06:59;25.70;79.90
612;DHT22;293;53.888;11.464;2023-06-22T09:09:27;25.60;79.80
612;DHT22;293;53.888;11.464;2023-06-22T09:11:55;25.70;80.80
612;DHT22;293;53.888;11.464;2023-06-22T09:14:22;25.80;81.50
612;DHT22;293;53.888;11.464;2023-06-22T09:16:49;25.70;80.20
612;DHT22;293;53.888;11.464;2023-06-22T09:19:16;25.80;79.30
612;DHT22;293;53.888;11.464;2023-06-22T09:21:43;25.90;81.10
612;DHT22;293;53.888;11.464;2023-06-22T09:24:10;25.90;80.80
612;DHT22;293;53.888;11.464;2023-06-22T09:26:37;26.00;81.20
612;DHT22;293;53.888;11.464;2023-06-22T09:29:06;26.00;81.40
612;DHT22;293;53.888;11.464;2023-06-22T09:31:33;26.10;81.50
612;DHT22;293;53.888;11.464;2023-06-22T09:34:00;26.00;83.70
612;DHT22;293;53.888;11.464;2023-06-22T09:36:27;25.90;83.40
612;DHT22;293;53.888;11.464;2023-06-22T09:38:54;26.00;80.90
612;DHT22;293;53.888;11.464;2023-06-22T09:41:24;26.10;82.00
612;DHT22;293;53.888;11.464;2023-06-22T09:43:51;26.30;81.30
612;DHT22;293;53.888;11.464;2023-06-22T09:46:19;26.30;79.40
612;DHT22;293;53.888;11.464;2023-06-22T09:48:48;26.20;79.90
612;DHT22;293;53.888;11.464;2023-06-22T09:51:14;26.00;81.80
612;DHT22;293;53.888;11.464;2023-06-22T09:53:41;26.00;82.30
612;DHT22;293;53.888;11.464;2023-06-22T09:56:09;26.10;82.50
612;DHT22;293;53.888;11.464;2023-06-22T09:58:40;26.10;82.30
612;DHT22;293;53.888;11.464;2023-06-22T10:01:07;26.00;82.90
612;DHT22;293;53.888;11.464;2023-06-22T10:03:36;26.00;83.40
612;DHT22;293;53.888;11.464;2023-06-22T10:06:03;26.10;82.10
612;DHT22;293;53.888;11.464;2023-06-22T10:08:29;26.10;81.90
612;DHT22;293;53.888;11.464;2023-06-22T10:10:56;26.10;81.90
612;DHT22;293;53.888;11.464;2023-06-22T10:13:23;26.10;82.30
612;DHT22;293;53.888;11.464;2023-06-22T10:15:50;26.00;81.80
612;DHT22;293;53.888;11.464;2023-06-22T10:18:17;26.00;81.60
612;DHT22;293;53.888;11.464;2023-06-22T10:20:49;26.00;81.70
612;DHT22;293;53.888;11.464;2023-06-22T10:23:17;26.00;80.80
612;DHT22;293;53.888;11.464;2023-06-22T10:25:43;26.10;82.00
612;DHT22;293;53.888;11.464;2023-06-22T10:28:11;26.00;80.50
612;DHT22;293;53.888;11.464;2023-06-22T10:30:38;26.00;80.60
612;DHT22;293;53.888;11.464;2023-06-22T10:33:06;25.90;80.80
612;DHT22;293;53.888;11.464;2023-06-22T10:35:33;26.00;80.30
612;DHT22;293;53.888;11.464;2023-06-22T10:38:02;26.00;79.50
612;DHT22;293;53.888;11.464;2023-06-22T10:40:29;26.00;80.00
612;DHT22;293;53.888;11.464;2023-06-22T10:42:56;25.90;80.10
612;DHT22;293;53.888;11.464;2023-06-22T10:45:23;25.90;79.40
612;DHT22;293;53.888;11.464;2023-06-22T10:47:50;25.90;80.40
612;DHT22;293;53.888;11.464;2023-06-22T10:50:18;25.80;79.90
612;DHT22;293;53.888;11.464;2023-06-22T10:52:45;25.80;80.40
612;DHT22;293;53.888;11.464;2023-06-22T10:55:14;25.90;80.20
612;DHT22;293;53.888;11.464;2023-06-22T10:57:41;25.90;79.70
612;DHT22;293;53.888;11.464;2023-06-22T11:00:11;26.00;80.00
612;DHT22;293;53.888;11.464;2023-06-22T11:02:38;26.10;79.20
612;DHT22;293;53.888;11.464;2023-06-22T11:05:05;26.10;78.50
612;DHT22;293;53.888;11.464;2023-06-22T11:07:33;26.10;78.20
612;DHT22;293;53.888;11.464;2023-06-22T11:10:00;26.00;78.00
612;DHT22;293;53.888;11.464;2023-06-22T11:12:28;26.00;77.90
612;DHT22;293;53.888;11.464;2023-06-22T11:14:55;26.10;77.80
612;DHT22;293;53.888;11.464;2023-06-22T11:17:22;26.10;79.00
612;DHT22;293;53.888;11.464;2023-06-22T11:19:50;26.20;78.20
612;DHT22;293;53.888;11.464;2023-06-22T11:22:17;26.10;77.40
612;DHT22;293;53.888;11.464;2023-06-22T11:24:44;26.10;77.40
612;DHT22;293;53.888;11.464;2023-06-22T11:27:11;26.10;76.80
612;DHT22;293;53.888;11.464;2023-06-22T11:29:39;26.00;76.90
612;DHT22;293;53.888;11.464;2023-06-22T11:32:07;26.00;76.60
612;DHT22;293;53.888;11.464;2023-06-22T11:34:34;26.00;77.40
612;DHT22;293;53.888;11.464;2023-06-22T11:37:00;26.00;76.90
612;DHT22;293;53.888;11.464;2023-06-22T11:39:27;26.10;77.00
612;DHT22;293;53.888;11.464;2023-06-22T11:41:54;26.10;76.50
612;DHT22;293;53.888;11.464;2023-06-22T11:44:21;26.10;76.50
612;DHT22;293;53.888;11.464;2023-06-22T11:46:49;26.10;76.10
612;DHT22;293;53.888;11.464;2023-06-22T11:49:16;26.10;75.60
612;DHT22;293;53.888;11.464;2023-06-22T11:51:43;26.10;75.70
612;DHT22;293;53.888;11.464;2023-06-22T11:54:10;26.00;75.00
612;DHT22;293;53.888;11.464;2023-06-22T11:56:37;26.00;75.40
612;DHT22;293;53.888;11.464;2023-06-22T11:59:03;26.00;74.80
612;DHT22;293;53.888;11.464;2023-06-22T12:01:30;26.10;75.30
612;DHT22;293;53.888;11.464;2023-06-22T12:04:00;26.10;74.70
612;DHT22;293;53.888;11.464;2023-06-22T12:06:27;26.10;74.00
612;DHT22;293;53.888;11.464;2023-06-22T12:08:54;26.10;73.90
612;DHT22;293;53.888;11.464;2023-06-22T12:11:21;26.10;74.60
612;DHT22;293;53.888;11.464;2023-06-22T12:13:47;26.00;75.20
612;DHT22;293;53.888;11.464;2023-06-22T12:16:14;26.00;75.30
612;DHT22;293;53.888;11.464;2023-06-22T12:18:41;26.00;75.70
612;DHT22;293;53.888;11.464;2023-06-22T12:21:10;26.00;74.80
612;DHT22;293;53.888;11.464;2023-06-22T12:23:36;26.00;75.40
612;DHT22;293;53.888;11.464;2023-06-22T12:26:03;26.00;75.70
612;DHT22;293;53.888;11.464;2023-06-22T12:28:30;26.00;75.00
612;DHT22;293;53.888;11.464;2023-06-22T12:30:57;26.00;75.60
612;DHT22;293;53.888;11.464;2023-06-22T12:33:24;26.00;75.50
612;DHT22;293;53.888;11.464;2023-06-22T12:35:50;26.00;75.20
612;DHT22;293;53.888;11.464;2023-06-22T12:38:19;26.00;75.50
612;DHT22;293;53.888;11.464;2023-06-22T12:40:46;26.10;75.60
612;DHT22;293;53.888;11.464;2023-06-22T12:43:15;26.10;75.90
612;DHT22;293;53.888;11.464;2023-06-22T12:45:41;26.10;74.90
612;DHT22;293;53.888;11.464;2023-06-22T12:48:08;26.00;74.70
612;DHT22;293;53.888;11.464;2023-06-22T12:50:35;25.90;75.10
612;DHT22;293;53.888;11.464;2023-06-22T12:53:02;25.90;76.30
612;DHT22;293;53.888;11.464;2023-06-22T12:55:31;25.90;75.80
612;DHT22;293;53.888;11.464;2023-06-22T12:57:58;25.90;75.90
612;DHT22;293;53.888;11.464;2023-06-22T13:00:25;25.90;76.00
612;DHT22;293;53.888;11.464;2023-06-22T13:02:52;25.90;75.90
612;DHT22;293;53.888;11.464;2023-06-22T13:05:19;25.90;75.90
612;DHT22;293;53.888;11.464;2023-06-22T13:07:46;26.00;75.90
612;DHT22;293;53.888;11.464;2023-06-22T13:10:13;25.90;75.80
612;DHT22;293;53.888;11.464;2023-06-22T13:12:41;25.90;75.70
612;DHT22;293;53.888;11.464;2023-06-22T13:15:08;25.90;76.50
612;DHT22;293;53.888;11.464;2023-06-22T13:17:35;25.90;76.00
612;DHT22;293;53.888;11.464;2023-06-22T13:20:02;26.00;75.90
612;DHT22;293;53.888;11.464;2023-06-22T13:22:31;26.10;76.00
612;DHT22;293;53.888;11.464;2023-06-22T13:25:00;26.10;76.30
612;DHT22;293;53.888;11.464;2023-06-22T13:27:27;26.20;76.30
612;DHT22;293;53.888;11.464;2023-06-22T13:29:55;26.20;76.60
612;DHT22;293;53.888;11.464;2023-06-22T13:32:22;26.20;76.40
612;DHT22;293;53.888;11.464;2023-06-22T13:34:50;26.20;76.80
612;DHT22;293;53.888;11.464;2023-06-22T13:37:17;26.20;77.00
612;DHT22;293;53.888;11.464;2023-06-22T13:39:44;26.30;76.80
612;DHT22;293;53.888;11.464;2023-06-22T13:42:11;26.30;77.20
612;DHT22;293;53.888;11.464;2023-06-22T13:44:38;26.30;77.70
612;DHT22;293;53.888;11.464;2023-06-22T13:47:06;26.30;76.40
612;DHT22;293;53.888;11.464;2023-06-22T13:49:33;26.30;75.90
612;DHT22;293;53.888;11.464;2023-06-22T13:52:00;26.30;76.60
612;DHT22;293;53.888;11.464;2023-06-22T13:54:29;26.30;76.40
612;DHT22;293;53.888;11.464;2023-06-22T13:56:55;26.20;76.80
612;DHT22;293;53.888;11.464;2023-06-22T13:59:22;26.20;77.30
612;DHT22;293;53.888;11.464;2023-06-22T14:01:50;26.30;76.80
612;DHT22;293;53.888;11.464;2023-06-22T14:04:18;26.40;77.20
612;DHT22;293;53.888;11.464;2023-06-22T14:06:45;26.50;77.10
612;DHT22;293;53.888;11.464;2023-06-22T14:09:12;26.50;76.90
612;DHT22;293;53.888;11.464;2023-06-22T14:11:39;26.60;77.20
612;DHT22;293;53.888;11.464;2023-06-22T14:14:05;26.50;78.00
612;DHT22;293;53.888;11.464;2023-06-22T14:16:32;26.50;77.30
612;DHT22;293;53.888;11.464;2023-06-22T14:18:59;26.60;77.80
612;DHT22;293;53.888;11.464;2023-06-22T14:21:27;26.50;77.20
612;DHT22;293;53.888;11.464;2023-06-22T14:23:54;26.50;78.20
612;DHT22;293;53.888;11.464;2023-06-22T14:26:21;26.30;77.90
612;DHT22;293;53.888;11.464;2023-06-22T14:28:49;26.30;78.90
612;DHT22;293;53.888;11.464;2023-06-22T14:31:17;26.30;78.20
612;DHT22;293;53.888;11.464;2023-06-22T14:33:46;26.30;79.20
612;DHT22;293;53.888;11.464;2023-06-22T14:36:13;26.30;78.80
612;DHT22;293;53.888;11.464;2023-06-22T14:38:41;26.20;76.90
612;DHT22;293;53.888;11.464;2023-06-22T14:41:08;26.20;76.80
612;DHT22;293;53.888;11.464;2023-06-22T14:43:35;26.20;77.40
612;DHT22;293;53.888;11.464;2023-06-22T14:46:02;26.10;76.80
612;DHT22;293;53.888;11.464;2023-06-22T14:48:29;26.20;77.40
612;DHT22;293;53.888;11.464;2023-06-22T14:50:57;26.30;76.40
612;DHT22;293;53.888;11.464;2023-06-22T14:53:25;26.30;74.50
612;DHT22;293;53.888;11.464;2023-06-22T14:55:54;26.40;72.90
612;DHT22;293;53.888;11.464;2023-06-22T14:58:21;26.50;71.40
612;DHT22;293;53.888;11.464;2023-06-22T15:00:48;26.50;71.20
612;DHT22;293;53.888;11.464;2023-06-22T15:03:15;26.60;71.30
612;DHT22;293;53.888;11.464;2023-06-22T15:05:47;26.70;69.80
612;DHT22;293;53.888;11.464;2023-06-22T15:08:14;26.60;69.70
612;DHT22;293;53.888;11.464;2023-06-22T15:10:41;26.50;70.30
612;DHT22;293;53.888;11.464;2023-06-22T15:13:09;26.30;71.50
612;DHT22;293;53.888;11.464;2023-06-22T15:15:36;25.70;74.40
612;DHT22;293;53.888;11.464;2023-06-22T15:18:03;26.10;70.80
612;DHT22;293;53.888;11.464;2023-06-22T15:20:30;26.10;70.70
612;DHT22;293;53.888;11.464;2023-06-22T15:22:57;25.90;71.00
612;DHT22;293;53.888;11.464;2023-06-22T15:25:24;25.80;71.50
612;DHT22;293;53.888;11.464;2023-06-22T15:27:51;25.70;71.70
612;DHT22;293;53.888;11.464;2023-06-22T15:30:19;25.80;71.70
612;DHT22;293;53.888;11.464;2023-06-22T15:32:46;25.90;71.60
612;DHT22;293;53.888;11.464;2023-06-22T15:35:14;25.90;71.80
612;DHT22;293;53.888;11.464;2023-06-22T15:37:43;26.10;72.50
612;DHT22;293;53.888;11.464;2023-06-22T15:40:10;26.10;71.20
612;DHT22;293;53.888;11.464;2023-06-22T15:42:37;26.10;71.40
612;DHT22;293;53.888;11.464;2023-06-22T15:45:05;26.00;71.70
612;DHT22;293;53.888;11.464;2023-06-22T15:47:33;26.00;71.60
612;DHT22;293;53.888;11.464;2023-06-22T15:50:00;26.00;71.20
612;DHT22;293;53.888;11.464;2023-06-22T15:52:27;26.00;71.80
612;DHT22;293;53.888;11.464;2023-06-22T15:54:54;26.00;71.00
612;DHT22;293;53.888;11.464;2023-06-22T15:57:23;26.00;71.10
612;DHT22;293;53.888;11.464;2023-06-22T15:59:51;26.00;70.60
612;DHT22;293;53.888;11.464;2023-06-22T16:02:18;26.00;71.00
612;DHT22;293;53.888;11.464;2023-06-22T16:04:47;25.90;70.90
612;DHT22;293;53.888;11.464;2023-06-22T16:07:13;25.90;71.00
612;DHT22;293;53.888;11.464;2023-06-22T16:09:40;25.90;71.20
612;DHT22;293;53.888;11.464;2023-06-22T16:12:08;25.90;70.30
612;DHT22;293;53.888;11.464;2023-06-22T16:14:35;25.90;70.70
612;DHT22;293;53.888;11.464;2023-06-22T16:17:03;25.90;70.00
612;DHT22;293;53.888;11.464;2023-06-22T16:19:30;25.90;70.30
612;DHT22;293;53.888;11.464;2023-06-22T16:21:58;25.90;70.20
612;DHT22;293;53.888;11.464;2023-06-22T16:24:25;25.90;69.70